sensor_id;sensor_type;location;lat;lon;timestamp;P1;durP1;ratioP1;P2;durP2;ratioP2
25980;SDS011;13772;52.996;9.124;2024-03-02T09:12:09;18.55;;;12.88;;
25980;SDS011;13772;52.996;9.124;2024-03-02T09:14:34;17.90;;;12.82;;
25980;SDS011;13772;52.996;9.124;2024-03-02T09:17:00;18.27;;;12.82;;
25980;SDS011;13772;52.996;9.124;2024-03-02T09:19:25;16.75;;;12.55;;
25980;SDS011;13772;52.996;9.124;2024-03-02T09:21:50;16.85;;;13.18;;
25980;SDS011;13772;52.996;9.124;2024-03-02T09:24:16;18.67;;;13.93;;
25980;SDS011;13772;52.996;9.124;2024-03-02T09:26:41;20.52;;;13.88;;
25980;SDS011;13772;52.996;9.124;2024-03-02T09:29:06;20.67;;;13.68;;
25980;SDS011;13772;52.996;9.124;2024-03-02T09:31:31;19.27;;;13.30;;
25980;SDS011;13772;52.996;9.124;2024-03-02T09:33:56;19.95;;;13.50;;
25980;SDS011;13772;52.996;9.124;2024-03-02T09:36:22;19.55;;;13.50;;
25980;SDS011;13772;52.996;9.124;2024-03-02T09:38:47;19.80;;;14.38;;
25980;SDS011;13772;52.996;9.124;2024-03-02T09:41:13;20.98;;;14.48;;
25980;SDS011;13772;52.996;9.124;2024-03-02T09:43:39;21.85;;;14.52;;
25980;SDS011;13772;52.996;9.124;2024-03-02T09:46:05;21.30;;;13.75;;
25980;SDS011;13772;52.996;9.124;2024-03-02T09:48:31;22.13;;;15.55;;
25980;SDS011;13772;52.996;9.124;2024-03-02T09:50:56;23.58;;;14.15;;
25980;SDS011;13772;52.996;9.124;2024-03-02T09:53:22;19.17;;;14.65;;
25980;SDS011;13772;52.996;9.124;2024-03-02T09:55:47;19.20;;;13.75;;
25980;SDS011;13772;52.996;9.124;2024-03-02T09:58:12;20.70;;;13.23;;
25980;SDS011;13772;52.996;9.124;2024-03-02T10:00:38;19.58;;;13.48;;
25980;SDS011;13772;52.996;9.124;2024-03-02T10:03:03;20.38;;;12.80;;
25980;SDS011;13772;52.996;9.124;2024-03-02T10:05:30;19.90;;;13.32;;
25980;SDS011;13772;52.996;9.124;2024-03-02T10:08:01;20.83;;;13.32;;
25980;SDS011;13772;52.996;9.124;2024-03-02T10:10:37;19.38;;;12.20;;
25980;SDS011;13772;52.996;9.124;2024-03-02T10:13:05;18.10;;;12.60;;
25980;SDS011;13772;52.996;9.124;2024-03-02T10:15:30;20.48;;;12.80;;
25980;SDS011;13772;52.996;9.124;2024-03-02T10:17:55;18.23;;;12.02;;
25980;SDS011;13772;52.996;9.124;2024-03-02T10:20:21;20.05;;;12.65;;
25980;SDS011;13772;52.996;9.124;2024-03-02T10:22:46;18.08;;;11.43;;
25980;SDS011;13772;52.996;9.124;2024-03-02T10:25:27;15.95;;;10.93;;
25980;SDS011;13772;52.996;9.124;2024-03-02T10:27:53;17.58;;;11.98;;
25980;SDS011;13772;52.996;9.124;2024-03-02T10:30:18;17.38;;;12.05;;
25980;SDS011;13772;52.996;9.124;2024-03-02T10:32:44;15.68;;;11.10;;
25980;SDS011;13772;52.996;9.124;2024-03-02T10:35:09;17.75;;;11.30;;
25980;SDS011;13772;52.996;9.124;2024-03-02T10:37:34;15.80;;;11.35;;
25980;SDS011;13772;52.996;9.124;2024-03-02T10:40:04;15.90;;;10.30;;
25980;SDS011;13772;52.996;9.124;2024-03-02T10:44:54;14.85;;;9.98;;
25980;SDS011;13772;52.996;9.124;2024-03-02T10:47:19;16.15;;;10.63;;
25980;SDS011;13772;52.996;9.124;2024-03-02T10:49:47;15.07;;;10.45;;
25980;SDS011;13772;52.996;9.124;2024-03-02T10:52:14;16.38;;;9.85;;
25980;SDS011;13772;52.996;9.124;2024-03-02T10:54:40;16.65;;;10.18;;
25980;SDS011;13772;52.996;9.124;2024-03-02T10:57:05;14.48;;;9.38;;
25980;SDS011;13772;52.996;9.124;2024-03-02T10:59:35;14.80;;;9.60;;
25980;SDS011;13772;52.996;9.124;2024-03-02T11:02:02;12.32;;;8.43;;
25980;SDS011;13772;52.996;9.124;2024-03-02T11:04:27;14.38;;;8.55;;
25980;SDS011;13772;52.996;9.124;2024-03-02T11:07:03;14.35;;;8.07;;
25980;SDS011;13772;52.996;9.124;2024-03-02T11:09:29;10.60;;;7.28;;
25980;SDS011;13772;52.996;9.124;2024-03-02T11:14:24;12.00;;;7.70;;
25980;SDS011;13772;52.996;9.124;2024-03-02T11:16:49;11.60;;;8.00;;
25980;SDS011;13772;52.996;9.124;2024-03-02T11:19:15;11.60;;;7.20;;
25980;SDS011;13772;52.996;9.124;2024-03-02T11:21:41;11.30;;;7.55;;
25980;SDS011;13772;52.996;9.124;2024-03-02T11:26:48;10.90;;;7.43;;
25980;SDS011;13772;52.996;9.124;2024-03-02T11:32:00;10.45;;;6.95;;
25980;SDS011;13772;52.996;9.124;2024-03-02T11:34:32;8.73;;;6.30;;
25980;SDS011;13772;52.996;9.124;2024-03-02T11:36:57;10.02;;;6.30;;
25980;SDS011;13772;52.996;9.124;2024-03-02T11:39:24;9.63;;;6.40;;
25980;SDS011;13772;52.996;9.124;2024-03-02T11:41:49;9.40;;;6.38;;
25980;SDS011;13772;52.996;9.124;2024-03-02T11:44:15;9.05;;;6.22;;
25980;SDS011;13772;52.996;9.124;2024-03-02T11:46:41;6.43;;;5.00;;
25980;SDS011;13772;52.996;9.124;2024-03-02T11:49:06;9.25;;;5.50;;
25980;SDS011;13772;52.996;9.124;2024-03-02T11:51:32;8.05;;;5.57;;
25980;SDS011;13772;52.996;9.124;2024-03-02T11:53:58;6.97;;;4.85;;
25980;SDS011;13772;52.996;9.124;2024-03-02T11:56:24;8.25;;;5.65;;
25980;SDS011;13772;52.996;9.124;2024-03-02T11:58:51;9.10;;;5.95;;
25980;SDS011;13772;52.996;9.124;2024-03-02T12:01:17;8.95;;;5.95;;
25980;SDS011;13772;52.996;9.124;2024-03-02T12:03:42;9.23;;;5.80;;
25980;SDS011;13772;52.996;9.124;2024-03-02T12:06:07;7.40;;;4.65;;
25980;SDS011;13772;52.996;9.124;2024-03-02T12:08:33;7.60;;;5.13;;
25980;SDS011;13772;52.996;9.124;2024-03-02T12:10:58;7.78;;;5.30;;
25980;SDS011;13772;52.996;9.124;2024-03-02T12:13:24;7.03;;;4.57;;
25980;SDS011;13772;52.996;9.124;2024-03-02T12:15:52;7.45;;;4.95;;
25980;SDS011;13772;52.996;9.124;2024-03-02T12:18:17;7.13;;;5.13;;
25980;SDS011;13772;52.996;9.124;2024-03-02T12:20:43;7.72;;;4.85;;
25980;SDS011;13772;52.996;9.124;2024-03-02T12:23:08;7.68;;;5.07;;
25980;SDS011;13772;52.996;9.124;2024-03-02T12:25:34;7.03;;;3.75;;
25980;SDS011;13772;52.996;9.124;2024-03-02T12:27:59;7.07;;;4.38;;
25980;SDS011;13772;52.996;9.124;2024-03-02T12:30:26;6.85;;;4.18;;
25980;SDS011;13772;52.996;9.124;2024-03-02T12:32:51;6.80;;;4.10;;
25980;SDS011;13772;52.996;9.124;2024-03-02T12:35:17;6.25;;;4.20;;
25980;SDS011;13772;52.996;9.124;2024-03-02T12:37:46;5.45;;;3.65;;
25980;SDS011;13772;52.996;9.124;2024-03-02T12:40:12;8.20;;;4.97;;
25980;SDS011;13772;52.996;9.124;2024-03-02T12:42:38;7.55;;;5.45;;
25980;SDS011;13772;52.996;9.124;2024-03-02T12:45:03;8.35;;;5.25;;
25980;SDS011;13772;52.996;9.124;2024-03-02T12:47:29;8.20;;;5.82;;
25980;SDS011;13772;52.996;9.124;2024-03-02T12:49:54;11.95;;;5.78;;
25980;SDS011;13772;52.996;9.124;2024-03-02T12:52:19;7.25;;;5.18;;
25980;SDS011;13772;52.996;9.124;2024-03-02T12:54:45;8.55;;;4.82;;
25980;SDS011;13772;52.996;9.124;2024-03-02T12:57:10;8.80;;;5.68;;
25980;SDS011;13772;52.996;9.124;2024-03-02T12:59:35;9.25;;;5.95;;
25980;SDS011;13772;52.996;9.124;2024-03-02T13:02:02;7.78;;;5.30;;
25980;SDS011;13772;52.996;9.124;2024-03-02T13:04:28;8.88;;;5.47;;
25980;SDS011;13772;52.996;9.124;2024-03-02T13:06:54;8.23;;;4.95;;
25980;SDS011;13772;52.996;9.124;2024-03-02T13:09:21;7.55;;;5.00;;
25980;SDS011;13772;52.996;9.124;2024-03-02T13:11:46;6.05;;;4.78;;
25980;SDS011;13772;52.996;9.124;2024-03-02T13:14:11;6.68;;;4.80;;
25980;SDS011;13772;52.996;9.124;2024-03-02T13:16:40;8.18;;;4.90;;
25980;SDS011;13772;52.996;9.124;2024-03-02T13:19:08;9.33;;;5.07;;
25980;SDS011;13772;52.996;9.124;2024-03-02T13:21:34;7.35;;;4.07;;
25980;SDS011;13772;52.996;9.124;2024-03-02T13:23:59;5.70;;;4.13;;
25980;SDS011;13772;52.996;9.124;2024-03-02T13:26:25;7.03;;;4.45;;
25980;SDS011;13772;52.996;9.124;2024-03-02T13:28:50;7.07;;;4.70;;
25980;SDS011;13772;52.996;9.124;2024-03-02T13:31:16;7.07;;;5.03;;
25980;SDS011;13772;52.996;9.124;2024-03-02T13:33:41;5.80;;;4.45;;
25980;SDS011;13772;52.996;9.124;2024-03-02T13:36:06;7.97;;;4.70;;
25980;SDS011;13772;52.996;9.124;2024-03-02T13:38:32;7.07;;;4.30;;
25980;SDS011;13772;52.996;9.124;2024-03-02T13:40:57;6.63;;;4.50;;
25980;SDS011;13772;52.996;9.124;2024-03-02T13:43:22;9.13;;;4.55;;
25980;SDS011;13772;52.996;9.124;2024-03-02T13:45:49;6.53;;;4.18;;
25980;SDS011;13772;52.996;9.124;2024-03-02T13:48:14;5.95;;;4.47;;
25980;SDS011;13772;52.996;9.124;2024-03-02T13:50:39;6.22;;;4.05;;
25980;SDS011;13772;52.996;9.124;2024-03-02T13:53:05;5.53;;;4.07;;
25980;SDS011;13772;52.996;9.124;2024-03-02T13:55:31;6.70;;;4.22;;
25980;SDS011;13772;52.996;9.124;2024-03-02T13:57:57;6.93;;;4.75;;
25980;SDS011;13772;52.996;9.124;2024-03-02T14:00:22;6.18;;;4.30;;
25980;SDS011;13772;52.996;9.124;2024-03-02T14:02:47;6.50;;;4.90;;
25980;SDS011;13772;52.996;9.124;2024-03-02T14:05:15;7.97;;;5.10;;
25980;SDS011;13772;52.996;9.124;2024-03-02T14:07:43;6.22;;;4.50;;
25980;SDS011;13772;52.996;9.124;2024-03-02T14:10:09;6.65;;;5.00;;
25980;SDS011;13772;52.996;9.124;2024-03-02T14:12:34;5.95;;;4.53;;
25980;SDS011;13772;52.996;9.124;2024-03-02T14:14:59;7.97;;;5.05;;
25980;SDS011;13772;52.996;9.124;2024-03-02T14:17:27;7.25;;;4.43;;
25980;SDS011;13772;52.996;9.124;2024-03-02T14:19:52;6.22;;;4.80;;
25980;SDS011;13772;52.996;9.124;2024-03-02T14:22:18;6.80;;;5.03;;
25980;SDS011;13772;52.996;9.124;2024-03-02T14:24:44;6.85;;;5.25;;
25980;SDS011;13772;52.996;9.124;2024-03-02T14:27:09;8.10;;;5.57;;
25980;SDS011;13772;52.996;9.124;2024-03-02T14:29:34;7.65;;;5.50;;
25980;SDS011;13772;52.996;9.124;2024-03-02T14:32:02;9.75;;;5.35;;
25980;SDS011;13772;52.996;9.124;2024-03-02T14:34:28;6.20;;;5.10;;
25980;SDS011;13772;52.996;9.124;2024-03-02T14:36:53;8.90;;;5.63;;
25980;SDS011;13772;52.996;9.124;2024-03-02T14:39:18;6.88;;;5.07;;
25980;SDS011;13772;52.996;9.124;2024-03-02T14:41:44;8.90;;;5.93;;
25980;SDS011;13772;52.996;9.124;2024-03-02T14:44:10;6.85;;;5.05;;
25980;SDS011;13772;52.996;9.124;2024-03-02T14:46:35;6.53;;;5.10;;
25980;SDS011;13772;52.996;9.124;2024-03-02T14:49:00;6.27;;;4.67;;
25980;SDS011;13772;52.996;9.124;2024-03-02T14:51:25;8.27;;;5.65;;
25980;SDS011;13772;52.996;9.124;2024-03-02T14:53:51;6.80;;;4.80;;
25980;SDS011;13772;52.996;9.124;2024-03-02T14:56:16;7.10;;;4.78;;
25980;SDS011;13772;52.996;9.124;2024-03-02T14:58:41;6.50;;;4.23;;
25980;SDS011;13772;52.996;9.124;2024-03-02T15:01:06;12.65;;;4.43;;
25980;SDS011;13772;52.996;9.124;2024-03-02T15:03:32;6.72;;;4.28;;
25980;SDS011;13772;52.996;9.124;2024-03-02T15:05:57;6.40;;;4.40;;
25980;SDS011;13772;52.996;9.124;2024-03-02T15:08:23;7.60;;;4.53;;
25980;SDS011;13772;52.996;9.124;2024-03-02T15:10:48;6.80;;;4.50;;
25980;SDS011;13772;52.996;9.124;2024-03-02T15:13:13;5.43;;;4.30;;
25980;SDS011;13772;52.996;9.124;2024-03-02T15:15:38;6.00;;;4.37;;
25980;SDS011;13772;52.996;9.124;2024-03-02T15:18:04;6.72;;;4.88;;
25980;SDS011;13772;52.996;9.124;2024-03-02T15:20:29;6.28;;;4.32;;
25980;SDS011;13772;52.996;9.124;2024-03-02T15:22:54;7.67;;;4.40;;
25980;SDS011;13772;52.996;9.124;2024-03-02T15:25:19;5.80;;;3.60;;
25980;SDS011;13772;52.996;9.124;2024-03-02T15:27:44;6.53;;;4.00;;
25980;SDS011;13772;52.996;9.124;2024-03-02T15:30:10;6.20;;;3.83;;
25980;SDS011;13772;52.996;9.124;2024-03-02T15:32:35;7.40;;;4.10;;
25980;SDS011;13772;52.996;9.124;2024-03-02T15:35:02;6.43;;;4.22;;
25980;SDS011;13772;52.996;9.124;2024-03-02T15:37:27;5.75;;;3.92;;
25980;SDS011;13772;52.996;9.124;2024-03-02T15:39:52;6.40;;;3.80;;
25980;SDS011;13772;52.996;9.124;2024-03-02T15:42:17;5.85;;;3.55;;
25980;SDS011;13772;52.996;9.124;2024-03-02T15:44:43;5.82;;;3.35;;
25980;SDS011;13772;52.996;9.124;2024-03-02T15:47:08;6.57;;;3.53;;
25980;SDS011;13772;52.996;9.124;2024-03-02T15:49:33;5.22;;;3.78;;
25980;SDS011;13772;52.996;9.124;2024-03-02T15:51:58;6.00;;;3.00;;
25980;SDS011;13772;52.996;9.124;2024-03-02T15:54:25;5.85;;;3.42;;
25980;SDS011;13772;52.996;9.124;2024-03-02T15:56:51;6.68;;;3.45;;
25980;SDS011;13772;52.996;9.124;2024-03-02T15:59:16;6.28;;;3.75;;
25980;SDS011;13772;52.996;9.124;2024-03-02T16:01:41;5.63;;;3.42;;
25980;SDS011;13772;52.996;9.124;2024-03-02T16:04:08;6.55;;;3.30;;
25980;SDS011;13772;52.996;9.124;2024-03-02T16:06:33;5.82;;;3.30;;
25980;SDS011;13772;52.996;9.124;2024-03-02T16:08:58;6.25;;;3.40;;
25980;SDS011;13772;52.996;9.124;2024-03-02T16:11:24;5.57;;;3.15;;
25980;SDS011;13772;52.996;9.124;2024-03-02T16:13:50;6.10;;;3.05;;
25980;SDS011;13772;52.996;9.124;2024-03-02T16:16:16;5.32;;;2.70;;
25980;SDS011;13772;52.996;9.124;2024-03-02T16:18:41;4.93;;;3.00;;
25980;SDS011;13772;52.996;9.124;2024-03-02T16:21:08;5.07;;;2.78;;
25980;SDS011;13772;52.996;9.124;2024-03-02T16:23:33;4.47;;;2.90;;
25980;SDS011;13772;52.996;9.124;2024-03-02T16:25:58;5.10;;;2.80;;
25980;SDS011;13772;52.996;9.124;2024-03-02T16:28:23;7.18;;;2.90;;
25980;SDS011;13772;52.996;9.124;2024-03-02T16:30:48;4.80;;;2.67;;
25980;SDS011;13772;52.996;9.124;2024-03-02T16:33:14;4.88;;;2.75;;
25980;SDS011;13772;52.996;9.124;2024-03-02T16:35:39;4.00;;;2.47;;
25980;SDS011;13772;52.996;9.124;2024-03-02T16:38:04;7.85;;;3.00;;
25980;SDS011;13772;52.996;9.124;2024-03-02T16:40:30;4.75;;;2.80;;
25980;SDS011;13772;52.996;9.124;2024-03-02T16:42:56;6.03;;;2.90;;
25980;SDS011;13772;52.996;9.124;2024-03-02T16:45:22;4.90;;;3.03;;
25980;SDS011;13772;52.996;9.124;2024-03-02T16:47:47;5.82;;;3.28;;
25980;SDS011;13772;52.996;9.124;2024-03-02T16:50:13;5.30;;;3.08;;
25980;SDS011;13772;52.996;9.124;2024-03-02T16:52:38;4.50;;;2.85;;
25980;SDS011;13772;52.996;9.124;2024-03-02T16:55:03;5.18;;;3.05;;
25980;SDS011;13772;52.996;9.124;2024-03-02T16:57:29;5.28;;;3.47;;
25980;SDS011;13772;52.996;9.124;2024-03-02T16:59:54;4.20;;;2.90;;
25980;SDS011;13772;52.996;9.124;2024-03-02T17:02:19;5.82;;;3.08;;
25980;SDS011;13772;52.996;9.124;2024-03-02T17:04:45;4.97;;;2.97;;
25980;SDS011;13772;52.996;9.124;2024-03-02T17:07:10;5.57;;;2.88;;
25980;SDS011;13772;52.996;9.124;2024-03-02T17:09:35;4.88;;;3.08;;
25980;SDS011;13772;52.996;9.124;2024-03-02T17:12:00;4.57;;;3.00;;
25980;SDS011;13772;52.996;9.124;2024-03-02T17:14:25;5.93;;;3.28;;
25980;SDS011;13772;52.996;9.124;2024-03-02T17:16:51;5.18;;;3.03;;
25980;SDS011;13772;52.996;9.124;2024-03-02T17:19:17;5.15;;;2.70;;
25980;SDS011;13772;52.996;9.124;2024-03-02T17:21:42;3.72;;;2.40;;
25980;SDS011;13772;52.996;9.124;2024-03-02T17:24:07;4.53;;;2.33;;
25980;SDS011;13772;52.996;9.124;2024-03-02T17:26:32;3.70;;;2.35;;
25980;SDS011;13772;52.996;9.124;2024-03-02T17:28:57;5.82;;;2.17;;
25980;SDS011;13772;52.996;9.124;2024-03-02T17:31:23;3.72;;;2.17;;
25980;SDS011;13772;52.996;9.124;2024-03-02T17:33:48;5.03;;;2.80;;
25980;SDS011;13772;52.996;9.124;2024-03-02T17:36:13;4.00;;;2.30;;
25980;SDS011;13772;52.996;9.124;2024-03-02T17:38:39;4.10;;;2.45;;
25980;SDS011;13772;52.996;9.124;2024-03-02T17:41:04;3.85;;;2.55;;
25980;SDS011;13772;52.996;9.124;2024-03-02T17:43:30;4.70;;;3.00;;
25980;SDS011;13772;52.996;9.124;2024-03-02T17:45:55;6.40;;;3.95;;
25980;SDS011;13772;52.996;9.124;2024-03-02T17:48:21;9.52;;;5.43;;
25980;SDS011;13772;52.996;9.124;2024-03-02T17:50:47;9.30;;;4.97;;
25980;SDS011;13772;52.996;9.124;2024-03-02T17:53:12;6.97;;;4.05;;
25980;SDS011;13772;52.996;9.124;2024-03-02T17:55:38;7.22;;;4.95;;
25980;SDS011;13772;52.996;9.124;2024-03-02T17:58:03;5.53;;;3.17;;
25980;SDS011;13772;52.996;9.124;2024-03-02T18:00:28;9.13;;;4.43;;
25980;SDS011;13772;52.996;9.124;2024-03-02T18:02:53;6.60;;;3.47;;
25980;SDS011;13772;52.996;9.124;2024-03-02T18:05:19;8.10;;;3.83;;
25980;SDS011;13772;52.996;9.124;2024-03-02T18:07:44;8.85;;;4.35;;
25980;SDS011;13772;52.996;9.124;2024-03-02T18:10:09;6.72;;;3.72;;
25980;SDS011;13772;52.996;9.124;2024-03-02T18:12:35;7.68;;;3.70;;
25980;SDS011;13772;52.996;9.124;2024-03-02T18:15:00;7.43;;;3.83;;
25980;SDS011;13772;52.996;9.124;2024-03-02T18:17:26;7.30;;;4.05;;
25980;SDS011;13772;52.996;9.124;2024-03-02T18:19:52;7.47;;;3.95;;
25980;SDS011;13772;52.996;9.124;2024-03-02T18:22:17;5.63;;;3.42;;
25980;SDS011;13772;52.996;9.124;2024-03-02T18:24:43;7.22;;;3.95;;
25980;SDS011;13772;52.996;9.124;2024-03-02T18:27:10;6.93;;;3.80;;
25980;SDS011;13772;52.996;9.124;2024-03-02T18:29:35;6.03;;;3.60;;
25980;SDS011;13772;52.996;9.124;2024-03-02T18:32:00;7.25;;;3.47;;
25980;SDS011;13772;52.996;9.124;2024-03-02T18:34:28;5.57;;;3.53;;
25980;SDS011;13772;52.996;9.124;2024-03-02T18:36:53;7.88;;;3.30;;
25980;SDS011;13772;52.996;9.124;2024-03-02T18:39:18;5.32;;;2.97;;
25980;SDS011;13772;52.996;9.124;2024-03-02T18:41:43;5.30;;;3.10;;
25980;SDS011;13772;52.996;9.124;2024-03-02T18:44:09;6.40;;;3.90;;
25980;SDS011;13772;52.996;9.124;2024-03-02T18:46:34;5.85;;;3.30;;
25980;SDS011;13772;52.996;9.124;2024-03-02T18:48:59;6.30;;;3.60;;
25980;SDS011;13772;52.996;9.124;2024-03-02T18:51:24;5.72;;;3.40;;
25980;SDS011;13772;52.996;9.124;2024-03-02T18:53:50;9.38;;;3.95;;
25980;SDS011;13772;52.996;9.124;2024-03-02T18:56:15;7.68;;;4.63;;
25980;SDS011;13772;52.996;9.124;2024-03-02T18:58:41;5.65;;;3.60;;
25980;SDS011;13772;52.996;9.124;2024-03-02T19:01:06;7.68;;;3.70;;
25980;SDS011;13772;52.996;9.124;2024-03-02T19:03:32;7.05;;;4.45;;
25980;SDS011;13772;52.996;9.124;2024-03-02T19:05:57;9.80;;;4.50;;
25980;SDS011;13772;52.996;9.124;2024-03-02T19:08:22;6.55;;;3.92;;
25980;SDS011;13772;52.996;9.124;2024-03-02T19:10:48;7.20;;;4.05;;
25980;SDS011;13772;52.996;9.124;2024-03-02T19:13:14;8.30;;;4.30;;
25980;SDS011;13772;52.996;9.124;2024-03-02T19:15:39;8.13;;;4.32;;
25980;SDS011;13772;52.996;9.124;2024-03-02T19:18:04;7.22;;;4.22;;
25980;SDS011;13772;52.996;9.124;2024-03-02T19:20:30;7.53;;;4.70;;
25980;SDS011;13772;52.996;9.124;2024-03-02T19:22:56;8.40;;;5.20;;
25980;SDS011;13772;52.996;9.124;2024-03-02T19:25:21;8.68;;;5.80;;
25980;SDS011;13772;52.996;9.124;2024-03-02T19:27:46;9.15;;;5.55;;
25980;SDS011;13772;52.996;9.124;2024-03-02T19:30:11;10.00;;;5.65;;
25980;SDS011;13772;52.996;9.124;2024-03-02T19:32:37;9.32;;;5.70;;
25980;SDS011;13772;52.996;9.124;2024-03-02T19:35:02;8.80;;;5.68;;
25980;SDS011;13772;52.996;9.124;2024-03-02T19:37:27;12.43;;;6.43;;
25980;SDS011;13772;52.996;9.124;2024-03-02T19:39:53;11.60;;;6.60;;
25980;SDS011;13772;52.996;9.124;2024-03-02T19:42:18;12.43;;;7.50;;
25980;SDS011;13772;52.996;9.124;2024-03-02T19:44:43;14.38;;;6.93;;
25980;SDS011;13772;52.996;9.124;2024-03-02T19:47:09;13.32;;;7.65;;
25980;SDS011;13772;52.996;9.124;2024-03-02T19:49:36;13.73;;;8.90;;
25980;SDS011;13772;52.996;9.124;2024-03-02T19:52:01;15.43;;;8.13;;
25980;SDS011;13772;52.996;9.124;2024-03-02T19:54:26;13.93;;;8.70;;
25980;SDS011;13772;52.996;9.124;2024-03-02T19:56:52;12.57;;;8.30;;
25980;SDS011;13772;52.996;9.124;2024-03-02T19:59:19;15.80;;;8.88;;
25980;SDS011;13772;52.996;9.124;2024-03-02T20:01:44;15.68;;;9.52;;
25980;SDS011;13772;52.996;9.124;2024-03-02T20:04:09;15.75;;;9.32;;
25980;SDS011;13772;52.996;9.124;2024-03-02T20:06:35;16.75;;;10.75;;
25980;SDS011;13772;52.996;9.124;2024-03-02T20:09:00;15.70;;;10.43;;
25980;SDS011;13772;52.996;9.124;2024-03-02T20:11:25;15.63;;;10.00;;
25980;SDS011;13772;52.996;9.124;2024-03-02T20:13:50;18.33;;;11.00;;
25980;SDS011;13772;52.996;9.124;2024-03-02T20:16:15;17.67;;;11.38;;
25980;SDS011;13772;52.996;9.124;2024-03-02T20:18:43;17.70;;;10.52;;
25980;SDS011;13772;52.996;9.124;2024-03-02T20:21:08;20.38;;;10.60;;
25980;SDS011;13772;52.996;9.124;2024-03-02T20:23:33;17.98;;;10.82;;
25980;SDS011;13772;52.996;9.124;2024-03-02T20:25:58;17.98;;;11.85;;
25980;SDS011;13772;52.996;9.124;2024-03-02T20:28:24;17.60;;;11.82;;
25980;SDS011;13772;52.996;9.124;2024-03-02T20:30:49;19.08;;;11.13;;
25980;SDS011;13772;52.996;9.124;2024-03-02T20:33:15;19.00;;;12.18;;
25980;SDS011;13772;52.996;9.124;2024-03-02T20:35:40;20.15;;;12.13;;
25980;SDS011;13772;52.996;9.124;2024-03-02T20:38:05;19.33;;;12.60;;
25980;SDS011;13772;52.996;9.124;2024-03-02T20:40:30;19.50;;;12.82;;
25980;SDS011;13772;52.996;9.124;2024-03-02T20:42:55;18.98;;;12.63;;
25980;SDS011;13772;52.996;9.124;2024-03-02T20:45:22;20.80;;;12.60;;
25980;SDS011;13772;52.996;9.124;2024-03-02T20:47:47;18.80;;;12.18;;
25980;SDS011;13772;52.996;9.124;2024-03-02T20:50:13;22.23;;;13.38;;
25980;SDS011;13772;52.996;9.124;2024-03-02T20:52:39;19.15;;;12.48;;
25980;SDS011;13772;52.996;9.124;2024-03-02T20:55:04;20.30;;;13.00;;
25980;SDS011;13772;52.996;9.124;2024-03-02T20:57:30;19.52;;;13.18;;
25980;SDS011;13772;52.996;9.124;2024-03-02T20:59:56;21.92;;;13.07;;
25980;SDS011;13772;52.996;9.124;2024-03-02T21:02:21;20.73;;;12.82;;
25980;SDS011;13772;52.996;9.124;2024-03-02T21:04:46;18.85;;;13.02;;
25980;SDS011;13772;52.996;9.124;2024-03-02T21:07:12;20.13;;;12.80;;
25980;SDS011;13772;52.996;9.124;2024-03-02T21:09:37;18.73;;;13.07;;
25980;SDS011;13772;52.996;9.124;2024-03-02T21:12:02;23.17;;;14.68;;
25980;SDS011;13772;52.996;9.124;2024-03-02T21:14:30;23.55;;;13.95;;
25980;SDS011;13772;52.996;9.124;2024-03-02T21:16:55;22.00;;;13.65;;
25980;SDS011;13772;52.996;9.124;2024-03-02T21:19:20;21.08;;;13.25;;
25980;SDS011;13772;52.996;9.124;2024-03-02T21:21:45;22.02;;;14.63;;
25980;SDS011;13772;52.996;9.124;2024-03-02T21:24:11;19.02;;;12.88;;
25980;SDS011;13772;52.996;9.124;2024-03-02T21:26:39;24.17;;;14.80;;
25980;SDS011;13772;52.996;9.124;2024-03-02T21:29:05;21.73;;;13.57;;
25980;SDS011;13772;52.996;9.124;2024-03-02T21:31:31;23.30;;;13.25;;
25980;SDS011;13772;52.996;9.124;2024-03-02T21:33:56;20.75;;;13.07;;
25980;SDS011;13772;52.996;9.124;2024-03-02T21:36:21;20.55;;;13.27;;
25980;SDS011;13772;52.996;9.124;2024-03-02T21:38:46;20.67;;;13.38;;
25980;SDS011;13772;52.996;9.124;2024-03-02T21:41:12;21.27;;;12.70;;
25980;SDS011;13772;52.996;9.124;2024-03-02T21:43:37;19.52;;;12.38;;
25980;SDS011;13772;52.996;9.124;2024-03-02T21:46:04;21.30;;;13.18;;
25980;SDS011;13772;52.996;9.124;2024-03-02T21:48:29;19.05;;;12.98;;
25980;SDS011;13772;52.996;9.124;2024-03-02T21:50:54;23.55;;;13.85;;
25980;SDS011;13772;52.996;9.124;2024-03-02T21:53:20;19.85;;;13.55;;
25980;SDS011;13772;52.996;9.124;2024-03-02T21:55:45;21.35;;;13.85;;
25980;SDS011;13772;52.996;9.124;2024-03-02T21:58:10;23.20;;;14.05;;
25980;SDS011;13772;52.996;9.124;2024-03-02T22:00:35;23.10;;;14.02;;
25980;SDS011;13772;52.996;9.124;2024-03-02T22:03:01;21.73;;;14.30;;
25980;SDS011;13772;52.996;9.124;2024-03-02T22:05:27;21.77;;;15.05;;
